Time;durP1;ratioP1;P1;durP2;ratioP2;P2;SDS_P1;SDS_P2;PMS_P1;PMS_P2;Temp;Humidity;BMP_temperature;BMP_pressure;BME280_temperature;BME280_humidity;BME280_pressure;Samples;Min_cycle;Max_cycle;Signal;HPM_P1;HPM_P2
2023/05/27 00:00:33;;;;;;;6.97;4.73;;;;;;;;;;5078751;28;20208;-64
2023/05/27 00:03:01;;;;;;;6.20;4.67;;;;;;;;;;5078780;28;20267;-64
2023/05/27 00:05:29;;;;;;;6.60;4.47;;;;;;;;;;5078625;28;20649;-64
2023/05/27 00:08:00;;;;;;;6.80;4.67;;;;;;;;;;5078598;28;20209;-64
2023/05/27 00:10:31;;;;;;;7.33;4.53;;;;;;;;;;5078338;28;20677;-64
2023/05/27 00:12:59;;;;;;;5.63;4.40;;;;;;;;;;5078704;28;20199;-64
2023/05/27 00:15:28;;;;;;;5.27;4.30;;;;;;;;;;5078219;28;20258;-64
2023/05/27 00:17:56;;;;;;;4.80;4.33;;;;;;;;;;5078611;28;20261;-64
2023/05/27 00:20:24;;;;;;;7.33;5.13;;;;;;;;;;5078555;28;20214;-64
2023/05/27 00:22:53;;;;;;;8.10;4.97;;;;;;;;;;5078249;28;20258;-63
2023/05/27 00:25:22;;;;;;;5.60;5.00;;;;;;;;;;5078511;28;20263;-64
2023/05/27 00:27:50;;;;;;;10.13;5.20;;;;;;;;;;5077879;28;20566;-64
2023/05/27 00:30:19;;;;;;;6.93;4.20;;;;;;;;;;5078124;28;20295;-64
2023/05/27 00:32:47;;;;;;;5.93;4.57;;;;;;;;;;5078375;28;20293;-64
2023/05/27 00:35:15;;;;;;;6.70;4.67;;;;;;;;;;5078179;28;20235;-64
2023/05/27 00:37:43;;;;;;;6.53;4.20;;;;;;;;;;5078086;28;20250;-64
2023/05/27 00:40:12;;;;;;;6.97;4.60;;;;;;;;;;5078064;28;20210;-64
2023/05/27 00:42:42;;;;;;;8.20;5.00;;;;;;;;;;5077687;28;20297;-64
2023/05/27 00:45:11;;;;;;;8.10;4.63;;;;;;;;;;5078072;28;20233;-64
2023/05/27 00:47:39;;;;;;;6.60;4.43;;;;;;;;;;5077996;28;20297;-64
2023/05/27 00:50:08;;;;;;;4.60;4.10;;;;;;;;;;5070838;28;20270;-64
2023/05/27 00:52:37;;;;;;;8.97;5.23;;;;;;;;;;5074054;28;20286;-64
2023/05/27 00:55:06;;;;;;;6.57;4.20;;;;;;;;;;5077981;28;20209;-64
2023/05/27 00:57:35;;;;;;;7.03;4.27;;;;;;;;;;5077577;28;20208;-64
2023/05/27 01:00:09;;;;;;;7.57;4.77;;;;;;;;;;5077904;28;20219;-64
2023/05/27 01:02:40;;;;;;;6.60;4.20;;;;;;;;;;5077614;28;20319;-64
2023/05/27 01:05:09;;;;;;;8.50;4.33;;;;;;;;;;5077871;28;20235;-64
2023/05/27 01:07:42;;;;;;;5.57;4.20;;;;;;;;;;5077631;28;20216;-64
2023/05/27 01:10:12;;;;;;;6.80;4.50;;;;;;;;;;5077469;28;20207;-64
2023/05/27 01:12:45;;;;;;;6.57;4.87;;;;;;;;;;5077679;28;20245;-64
2023/05/27 01:15:14;;;;;;;7.57;4.47;;;;;;;;;;5077775;28;20225;-64
2023/05/27 01:17:43;;;;;;;7.23;4.80;;;;;;;;;;5077852;28;20250;-64
2023/05/27 01:20:13;;;;;;;6.53;4.90;;;;;;;;;;5077551;28;20943;-64
2023/05/27 01:22:43;;;;;;;6.07;4.37;;;;;;;;;;5077617;28;20204;-64
2023/05/27 01:25:11;;;;;;;7.17;4.70;;;;;;;;;;5077215;28;20233;-63
2023/05/27 01:27:40;;;;;;;5.93;4.00;;;;;;;;;;5077484;28;20263;-64
2023/05/27 01:30:08;;;;;;;6.80;4.47;;;;;;;;;;5077373;28;20208;-64
2023/05/27 01:32:41;;;;;;;7.30;4.80;;;;;;;;;;5077755;28;20209;-63
2023/05/27 01:35:17;;;;;;;5.87;4.33;;;;;;;;;;5077301;28;20715;-62
2023/05/27 01:37:46;;;;;;;6.30;5.20;;;;;;;;;;5077604;28;20209;-64
2023/05/27 01:40:15;;;;;;;6.57;4.87;;;;;;;;;;5077559;28;20296;-64
2023/05/27 01:42:44;;;;;;;5.17;4.30;;;;;;;;;;5076976;28;20295;-64
2023/05/27 01:45:13;;;;;;;6.73;4.00;;;;;;;;;;5077439;28;20233;-64
2023/05/27 01:47:41;;;;;;;8.10;4.53;;;;;;;;;;5077200;28;20295;-64
2023/05/27 01:50:09;;;;;;;7.20;4.63;;;;;;;;;;5077475;28;20204;-64
2023/05/27 01:52:37;;;;;;;8.67;4.83;;;;;;;;;;5077250;28;20281;-64
2023/05/27 01:55:07;;;;;;;9.20;4.70;;;;;;;;;;5077099;28;20207;-64
2023/05/27 01:57:36;;;;;;;4.43;4.03;;;;;;;;;;5077083;28;20223;-64
2023/05/27 02:00:07;;;;;;;6.33;4.63;;;;;;;;;;5077137;28;20572;-63
2023/05/27 02:02:35;;;;;;;8.00;4.53;;;;;;;;;;5077009;28;20246;-63
2023/05/27 02:05:03;;;;;;;5.97;4.70;;;;;;;;;;5080898;28;20259;-63
2023/05/27 02:07:31;;;;;;;7.80;5.10;;;;;;;;;;5080894;28;21593;-63
2023/05/27 02:09:59;;;;;;;5.60;4.77;;;;;;;;;;5080676;28;20603;-62
2023/05/27 02:12:29;;;;;;;6.93;4.57;;;;;;;;;;5080611;28;20206;-62
2023/05/27 02:14:59;;;;;;;8.73;4.67;;;;;;;;;;5080663;28;20569;-63
2023/05/27 02:17:27;;;;;;;5.50;4.63;;;;;;;;;;5080652;28;20292;-63
2023/05/27 02:19:56;;;;;;;5.30;4.63;;;;;;;;;;5080614;28;20722;-62
2023/05/27 02:22:24;;;;;;;8.33;5.00;;;;;;;;;;5080776;28;20215;-63
2023/05/27 02:24:52;;;;;;;6.17;4.43;;;;;;;;;;5080800;28;20225;-62
2023/05/27 02:27:20;;;;;;;5.83;4.43;;;;;;;;;;5080453;28;20236;-63
2023/05/27 02:29:50;;;;;;;6.53;4.90;;;;;;;;;;5080486;28;20238;-63
2023/05/27 02:32:18;;;;;;;5.43;4.50;;;;;;;;;;5080753;28;20242;-63
2023/05/27 02:34:46;;;;;;;7.13;4.83;;;;;;;;;;5080564;28;20206;-62
2023/05/27 02:37:14;;;;;;;5.90;5.13;;;;;;;;;;5080757;28;20202;-61
2023/05/27 02:39:43;;;;;;;7.27;4.60;;;;;;;;;;5080419;28;20221;-62
2023/05/27 02:42:11;;;;;;;6.67;4.73;;;;;;;;;;5079938;28;20206;-61
2023/05/27 02:44:39;;;;;;;6.03;4.70;;;;;;;;;;5080377;28;20230;-61
2023/05/27 02:47:13;;;;;;;9.67;5.00;;;;;;;;;;5080351;28;20233;-61
2023/05/27 02:49:41;;;;;;;7.63;5.00;;;;;;;;;;5080055;28;20206;-62
2023/05/27 02:52:09;;;;;;;8.40;4.87;;;;;;;;;;5069627;28;20209;-62
2023/05/27 02:54:37;;;;;;;7.33;4.60;;;;;;;;;;5080066;28;20234;-62
2023/05/27 02:57:06;;;;;;;9.13;4.83;;;;;;;;;;5079629;28;20241;-62
2023/05/27 02:59:34;;;;;;;6.03;4.70;;;;;;;;;;5079969;28;20233;-62
2023/05/27 03:02:03;;;;;;;7.53;4.97;;;;;;;;;;5080130;28;20325;-62
2023/05/27 03:04:34;;;;;;;7.70;5.17;;;;;;;;;;5079818;28;20266;-62
2023/05/27 03:07:03;;;;;;;6.50;5.00;;;;;;;;;;5079729;28;20727;-63
2023/05/27 03:09:33;;;;;;;5.13;4.63;;;;;;;;;;5079759;28;20210;-62
2023/05/27 03:12:02;;;;;;;8.77;5.67;;;;;;;;;;5079714;28;20219;-62
2023/05/27 03:14:31;;;;;;;7.87;4.83;;;;;;;;;;5079295;28;20212;-62
2023/05/27 03:16:59;;;;;;;7.03;4.60;;;;;;;;;;5079795;28;20234;-62
2023/05/27 03:19:28;;;;;;;8.00;4.77;;;;;;;;;;5079437;28;20202;-62
2023/05/27 03:21:57;;;;;;;6.77;4.60;;;;;;;;;;5079690;28;20567;-62
2023/05/27 03:24:25;;;;;;;8.60;5.13;;;;;;;;;;5079472;28;20236;-62
2023/05/27 03:26:54;;;;;;;5.83;4.87;;;;;;;;;;5079053;28;20222;-61
2023/05/27 03:29:22;;;;;;;8.73;5.53;;;;;;;;;;5079509;28;20285;-61
2023/05/27 03:31:50;;;;;;;6.67;4.60;;;;;;;;;;5079568;28;20213;-61
2023/05/27 03:34:18;;;;;;;5.63;5.03;;;;;;;;;;5079142;28;20683;-61
2023/05/27 03:36:46;;;;;;;6.97;5.03;;;;;;;;;;5079212;28;20222;-61
2023/05/27 03:39:16;;;;;;;6.73;4.97;;;;;;;;;;5079027;28;20233;-62
2023/05/27 03:41:44;;;;;;;7.03;5.17;;;;;;;;;;5078983;28;20210;-62
2023/05/27 03:44:12;;;;;;;5.80;4.50;;;;;;;;;;5079107;28;20206;-64
2023/05/27 03:46:41;;;;;;;9.03;5.07;;;;;;;;;;5078983;28;20230;-62
2023/05/27 03:49:09;;;;;;;5.23;4.73;;;;;;;;;;5078901;28;20684;-62
2023/05/27 03:51:37;;;;;;;9.50;5.63;;;;;;;;;;5078995;28;20206;-62
2023/05/27 03:54:05;;;;;;;6.60;4.77;;;;;;;;;;5079032;28;20210;-62
2023/05/27 03:56:38;;;;;;;6.33;4.80;;;;;;;;;;5078441;28;20309;-63
2023/05/27 03:59:06;;;;;;;11.97;5.00;;;;;;;;;;5079004;28;20206;-62
2023/05/27 04:01:34;;;;;;;6.80;4.93;;;;;;;;;;5078618;28;20295;-62
2023/05/27 04:04:02;;;;;;;10.80;5.73;;;;;;;;;;5078776;28;20206;-62
2023/05/27 04:06:31;;;;;;;11.93;4.70;;;;;;;;;;5078579;28;20238;-62
2023/05/27 04:08:59;;;;;;;10.67;5.20;;;;;;;;;;5078629;28;20234;-62
2023/05/27 04:11:28;;;;;;;7.87;4.83;;;;;;;;;;5078476;28;20292;-62
2023/05/27 04:13:57;;;;;;;8.10;4.80;;;;;;;;;;5078574;28;20217;-62
2023/05/27 04:16:26;;;;;;;9.93;5.90;;;;;;;;;;5078329;28;20222;-62
2023/05/27 04:18:54;;;;;;;5.97;4.90;;;;;;;;;;5078513;28;20202;-63
2023/05/27 04:21:22;;;;;;;8.90;5.33;;;;;;;;;;5078652;28;20206;-63
2023/05/27 04:23:50;;;;;;;6.07;4.27;;;;;;;;;;5078427;28;20202;-64
2023/05/27 04:26:19;;;;;;;11.23;5.03;;;;;;;;;;5077287;28;20272;-64
2023/05/27 04:28:48;;;;;;;9.03;5.17;;;;;;;;;;5078298;28;20213;-64
2023/05/27 04:31:17;;;;;;;7.93;5.00;;;;;;;;;;5078333;28;20283;-64
2023/05/27 04:33:45;;;;;;;7.13;4.77;;;;;;;;;;5077954;28;20202;-64
2023/05/27 04:36:17;;;;;;;10.30;5.40;;;;;;;;;;5078200;28;20312;-64
2023/05/27 04:38:46;;;;;;;6.87;5.00;;;;;;;;;;5077914;28;20210;-64
2023/05/27 04:41:14;;;;;;;6.67;4.80;;;;;;;;;;5077663;28;20568;-62
2023/05/27 04:43:43;;;;;;;9.57;5.40;;;;;;;;;;5078053;28;20290;-63
2023/05/27 04:46:12;;;;;;;7.17;5.20;;;;;;;;;;5077782;28;20234;-62
2023/05/27 04:48:44;;;;;;;7.87;5.40;;;;;;;;;;5077752;28;20609;-63
2023/05/27 04:51:15;;;;;;;7.20;4.43;;;;;;;;;;5077800;28;20278;-64
2023/05/27 04:53:43;;;;;;;7.23;4.90;;;;;;;;;;5067027;28;20233;-62
2023/05/27 04:56:14;;;;;;;6.37;5.20;;;;;;;;;;5077801;28;20313;-63
2023/05/27 04:58:46;;;;;;;5.47;4.97;;;;;;;;;;5078037;28;20210;-62
2023/05/27 05:01:17;;;;;;;6.50;4.63;;;;;;;;;;5077499;28;20311;-62
2023/05/27 05:03:52;;;;;;;6.23;4.97;;;;;;;;;;5077837;28;20206;-62
2023/05/27 05:06:22;;;;;;;7.10;4.87;;;;;;;;;;5077489;28;20320;-62
2023/05/27 05:08:51;;;;;;;9.17;5.30;;;;;;;;;;5077563;28;20292;-62
2023/05/27 05:11:19;;;;;;;6.67;5.53;;;;;;;;;;5077290;28;20665;-64
2023/05/27 05:13:47;;;;;;;10.10;4.67;;;;;;;;;;5077915;28;20206;-62
2023/05/27 05:16:16;;;;;;;7.83;5.10;;;;;;;;;;5077452;28;20233;-62
2023/05/27 05:18:44;;;;;;;7.30;4.93;;;;;;;;;;5077796;28;20351;-62
2023/05/27 05:21:13;;;;;;;6.33;5.10;;;;;;;;;;5077537;28;20324;-62
2023/05/27 05:23:42;;;;;;;9.63;4.63;;;;;;;;;;5077777;28;20245;-63
2023/05/27 05:26:10;;;;;;;8.70;4.93;;;;;;;;;;5077070;28;20226;-62
2023/05/27 05:28:39;;;;;;;6.57;4.60;;;;;;;;;;5077875;28;20316;-62
2023/05/27 05:31:07;;;;;;;9.70;4.83;;;;;;;;;;5077586;28;20217;-62
2023/05/27 05:33:35;;;;;;;6.03;4.67;;;;;;;;;;5077584;28;20728;-63
2023/05/27 05:36:04;;;;;;;8.47;5.13;;;;;;;;;;5077841;28;20275;-62
2023/05/27 05:38:33;;;;;;;7.60;5.20;;;;;;;;;;5080374;28;20613;-63
2023/05/27 05:41:02;;;;;;;6.97;5.10;;;;;;;;;;5081575;28;20210;-62
2023/05/27 05:43:30;;;;;;;5.00;4.50;;;;;;;;;;5081210;28;20233;-61
2023/05/27 05:45:59;;;;;;;9.73;5.43;;;;;;;;;;5080503;28;20218;-61
2023/05/27 05:48:28;;;;;;;8.87;4.50;;;;;;;;;;5080179;28;20248;-63
2023/05/27 05:50:56;;;;;;;6.77;4.83;;;;;;;;;;5080068;28;20206;-62
2023/05/27 05:53:24;;;;;;;6.07;4.77;;;;;;;;;;5079980;28;20226;-63
2023/05/27 05:55:54;;;;;;;8.83;5.17;;;;;;;;;;5080066;28;20217;-65
2023/05/27 05:58:22;;;;;;;6.10;4.93;;;;;;;;;;5079832;28;20202;-63
2023/05/27 06:00:50;;;;;;;7.43;4.83;;;;;;;;;;5077963;28;20294;-64
2023/05/27 06:03:19;;;;;;;7.50;5.43;;;;;;;;;;5080764;28;20654;-64
2023/05/27 06:05:48;;;;;;;7.17;5.07;;;;;;;;;;5081052;28;20222;-63
2023/05/27 06:08:16;;;;;;;6.70;5.37;;;;;;;;;;5080748;28;20214;-65
2023/05/27 06:10:45;;;;;;;5.70;5.13;;;;;;;;;;5080514;28;20643;-64
2023/05/27 06:13:14;;;;;;;6.47;4.80;;;;;;;;;;5080715;28;20210;-65
2023/05/27 06:15:42;;;;;;;6.73;4.60;;;;;;;;;;5080665;28;20229;-64
2023/05/27 06:18:11;;;;;;;6.47;5.60;;;;;;;;;;5080321;28;20265;-64
2023/05/27 06:20:39;;;;;;;7.83;5.03;;;;;;;;;;5080397;28;20205;-63
2023/05/27 06:23:07;;;;;;;7.50;5.20;;;;;;;;;;5080119;28;20202;-66
2023/05/27 06:25:36;;;;;;;8.57;4.97;;;;;;;;;;5079906;28;20225;-63
2023/05/27 06:28:04;;;;;;;9.77;4.83;;;;;;;;;;5080314;28;20313;-65
2023/05/27 06:30:34;;;;;;;7.67;5.57;;;;;;;;;;5080182;28;20241;-62
2023/05/27 06:33:02;;;;;;;6.67;5.43;;;;;;;;;;5080675;28;20217;-63
2023/05/27 06:35:30;;;;;;;6.90;4.70;;;;;;;;;;5080047;28;20229;-62
2023/05/27 06:37:59;;;;;;;7.07;5.17;;;;;;;;;;5077388;28;20206;-62
2023/05/27 06:40:27;;;;;;;8.43;5.07;;;;;;;;;;5078823;28;20202;-63
2023/05/27 06:42:58;;;;;;;7.73;5.47;;;;;;;;;;5079763;28;20203;-63
2023/05/27 06:45:27;;;;;;;12.83;5.60;;;;;;;;;;5077372;28;20253;-63
2023/05/27 06:47:56;;;;;;;8.60;4.97;;;;;;;;;;5079556;28;20305;-63
2023/05/27 06:50:24;;;;;;;9.70;5.03;;;;;;;;;;5076959;28;20205;-63
2023/05/27 06:52:53;;;;;;;8.43;5.37;;;;;;;;;;5079358;28;20203;-62
2023/05/27 06:55:21;;;;;;;8.67;5.20;;;;;;;;;;5077765;28;20260;-62
2023/05/27 06:57:50;;;;;;;7.27;4.83;;;;;;;;;;5079872;28;20277;-63
2023/05/27 07:00:19;;;;;;;7.07;4.57;;;;;;;;;;5077270;28;20211;-63
2023/05/27 07:02:47;;;;;;;5.53;5.00;;;;;;;;;;5079458;28;20561;-63
2023/05/27 07:05:17;;;;;;;6.67;5.07;;;;;;;;;;5079059;28;20262;-63
2023/05/27 07:07:45;;;;;;;6.50;5.13;;;;;;;;;;5079727;28;20239;-65
2023/05/27 07:10:13;;;;;;;7.20;5.07;;;;;;;;;;5079160;28;20639;-64
2023/05/27 07:12:42;;;;;;;6.23;4.57;;;;;;;;;;5079447;28;20212;-64
2023/05/27 07:15:11;;;;;;;7.80;5.00;;;;;;;;;;5079331;28;20229;-64
2023/05/27 07:17:39;;;;;;;5.87;4.87;;;;;;;;;;5078979;28;20237;-64
2023/05/27 07:20:08;;;;;;;4.97;4.40;;;;;;;;;;5078523;28;20211;-64
2023/05/27 07:22:38;;;;;;;7.97;5.10;;;;;;;;;;5078627;28;20203;-63
2023/05/27 07:25:06;;;;;;;6.87;5.20;;;;;;;;;;5078696;28;20208;-64
2023/05/27 07:27:34;;;;;;;8.27;5.40;;;;;;;;;;5078150;28;20221;-63
2023/05/27 07:30:03;;;;;;;9.40;4.83;;;;;;;;;;5075222;28;20212;-63
2023/05/27 07:32:31;;;;;;;6.57;4.83;;;;;;;;;;5077183;28;20206;-65
2023/05/27 07:34:59;;;;;;;6.47;4.77;;;;;;;;;;5078534;28;20641;-65
2023/05/27 07:37:29;;;;;;;11.93;4.70;;;;;;;;;;5078673;28;20202;-65
2023/05/27 07:39:59;;;;;;;9.77;5.10;;;;;;;;;;5078536;28;20228;-65
2023/05/27 07:42:27;;;;;;;9.43;5.30;;;;;;;;;;5078228;28;20223;-64
2023/05/27 07:44:58;;;;;;;7.40;5.20;;;;;;;;;;5075603;28;20204;-64
2023/05/27 07:47:26;;;;;;;6.00;4.90;;;;;;;;;;5078597;28;20216;-63
2023/05/27 07:49:55;;;;;;;9.30;5.47;;;;;;;;;;5078398;28;20205;-63
2023/05/27 07:52:23;;;;;;;8.40;5.60;;;;;;;;;;5078696;28;20299;-63
2023/05/27 07:54:51;;;;;;;7.53;5.53;;;;;;;;;;5077737;28;20662;-63
2023/05/27 07:57:24;;;;;;;7.20;5.40;;;;;;;;;;5078533;28;20655;-63
2023/05/27 07:59:52;;;;;;;7.80;5.80;;;;;;;;;;5078975;28;20209;-65
2023/05/27 08:02:21;;;;;;;11.40;5.30;;;;;;;;;;5078687;28;20276;-65
2023/05/27 08:04:50;;;;;;;8.10;5.33;;;;;;;;;;5078609;28;20206;-64
2023/05/27 08:07:18;;;;;;;7.30;5.27;;;;;;;;;;5078141;28;20241;-64
2023/05/27 08:09:46;;;;;;;6.00;5.23;;;;;;;;;;5078208;28;20245;-64
2023/05/27 08:12:15;;;;;;;7.73;5.50;;;;;;;;;;5078206;28;20238;-65
2023/05/27 08:14:44;;;;;;;9.57;5.83;;;;;;;;;;5078306;28;20287;-65
2023/05/27 08:17:13;;;;;;;10.10;5.53;;;;;;;;;;5078063;28;20236;-62
2023/05/27 08:19:41;;;;;;;6.60;5.23;;;;;;;;;;5078196;28;20207;-63
2023/05/27 08:22:09;;;;;;;9.53;5.63;;;;;;;;;;5078148;28;20205;-63
2023/05/27 08:24:38;;;;;;;8.77;5.87;;;;;;;;;;5077690;28;20201;-64
2023/05/27 08:27:06;;;;;;;8.57;6.00;;;;;;;;;;5074693;28;20557;-65
2023/05/27 08:29:35;;;;;;;9.47;5.80;;;;;;;;;;5077588;28;20196;-65
2023/05/27 08:32:05;;;;;;;10.33;5.50;;;;;;;;;;5073957;28;20750;-63
2023/05/27 08:34:34;;;;;;;7.27;5.63;;;;;;;;;;5076283;28;20197;-65
2023/05/27 08:37:03;;;;;;;8.63;5.70;;;;;;;;;;5076659;28;20230;-64
2023/05/27 08:39:31;;;;;;;11.07;6.37;;;;;;;;;;5076617;28;20196;-65
2023/05/27 08:42:02;;;;;;;13.13;5.90;;;;;;;;;;5077082;28;20285;-65
2023/05/27 08:44:30;;;;;;;10.73;5.87;;;;;;;;;;5077266;28;20197;-65
2023/05/27 08:46:58;;;;;;;9.77;5.03;;;;;;;;;;5077315;28;20221;-64
2023/05/27 08:49:28;;;;;;;7.53;5.53;;;;;;;;;;5077415;28;20197;-65
2023/05/27 08:51:57;;;;;;;7.93;5.33;;;;;;;;;;5077076;28;20198;-65
2023/05/27 08:54:26;;;;;;;8.93;5.73;;;;;;;;;;5074648;28;20199;-65
2023/05/27 08:56:56;;;;;;;6.87;6.17;;;;;;;;;;5076382;28;20218;-63
2023/05/27 08:59:25;;;;;;;8.03;5.57;;;;;;;;;;5077179;28;20202;-63
2023/05/27 09:01:53;;;;;;;10.13;5.83;;;;;;;;;;5076949;28;20701;-64
2023/05/27 09:04:21;;;;;;;9.80;6.30;;;;;;;;;;5074004;28;20208;-65
2023/05/27 09:06:51;;;;;;;8.07;5.93;;;;;;;;;;5077537;28;20599;-64
2023/05/27 09:09:20;;;;;;;9.83;6.03;;;;;;;;;;5077053;28;20267;-64
2023/05/27 09:11:48;;;;;;;9.97;6.47;;;;;;;;;;5076811;28;20672;-64
2023/05/27 09:14:20;;;;;;;9.00;6.10;;;;;;;;;;5077338;28;20206;-63
2023/05/27 09:16:49;;;;;;;9.43;6.10;;;;;;;;;;5077389;28;20229;-64
2023/05/27 09:19:17;;;;;;;8.10;5.90;;;;;;;;;;5076899;28;20211;-63
2023/05/27 09:21:46;;;;;;;7.03;5.50;;;;;;;;;;5077056;28;20200;-64
2023/05/27 09:24:15;;;;;;;6.40;5.73;;;;;;;;;;5076951;28;20210;-63
2023/05/27 09:26:44;;;;;;;7.67;5.73;;;;;;;;;;5074185;28;20218;-63
2023/05/27 09:29:12;;;;;;;9.50;6.47;;;;;;;;;;5075747;28;20223;-64
2023/05/27 09:31:41;;;;;;;16.93;6.03;;;;;;;;;;5076905;28;20233;-65
2023/05/27 09:34:13;;;;;;;6.67;5.53;;;;;;;;;;5077032;28;20233;-64
2023/05/27 09:36:45;;;;;;;9.00;5.00;;;;;;;;;;5076480;28;20223;-65
2023/05/27 09:39:14;;;;;;;11.40;6.00;;;;;;;;;;5076289;28;20249;-65
2023/05/27 09:41:44;;;;;;;6.50;5.53;;;;;;;;;;5076274;28;20580;-64
2023/05/27 09:44:12;;;;;;;8.17;5.73;;;;;;;;;;5076666;28;20649;-63
2023/05/27 09:46:41;;;;;;;12.90;5.63;;;;;;;;;;5076533;28;20705;-64
2023/05/27 09:49:11;;;;;;;9.40;5.87;;;;;;;;;;5076904;28;20222;-65
2023/05/27 09:51:39;;;;;;;12.00;6.20;;;;;;;;;;5077092;28;20297;-64
2023/05/27 09:54:08;;;;;;;7.50;5.57;;;;;;;;;;5076259;28;20203;-65
2023/05/27 09:56:37;;;;;;;6.80;5.37;;;;;;;;;;5076478;28;20265;-64
2023/05/27 09:59:07;;;;;;;11.00;6.17;;;;;;;;;;5076787;28;20266;-64
2023/05/27 10:01:36;;;;;;;8.40;6.13;;;;;;;;;;5076636;28;20246;-66
2023/05/27 10:04:04;;;;;;;9.63;5.77;;;;;;;;;;5076377;28;20270;-64
2023/05/27 10:06:33;;;;;;;6.93;5.53;;;;;;;;;;5075511;28;20236;-65
2023/05/27 10:09:02;;;;;;;8.57;5.53;;;;;;;;;;5074907;28;20225;-66
2023/05/27 10:11:32;;;;;;;9.67;6.17;;;;;;;;;;5075539;28;20209;-65
2023/05/27 10:14:00;;;;;;;10.17;6.10;;;;;;;;;;5075463;28;20661;-65
2023/05/27 10:16:30;;;;;;;11.77;7.73;;;;;;;;;;5075308;28;20226;-65
2023/05/27 10:18:58;;;;;;;8.67;5.83;;;;;;;;;;5073409;28;20550;-65
2023/05/27 10:21:28;;;;;;;6.87;5.97;;;;;;;;;;5076613;28;20198;-66
2023/05/27 10:23:59;;;;;;;9.03;6.00;;;;;;;;;;5074511;28;20194;-65
2023/05/27 10:26:35;;;;;;;9.60;5.43;;;;;;;;;;5079966;28;20214;-66
2023/05/27 10:29:07;;;;;;;9.40;5.57;;;;;;;;;;5079575;28;20232;-65
2023/05/27 10:31:37;;;;;;;6.43;4.93;;;;;;;;;;5068976;28;20652;-65
2023/05/27 10:34:07;;;;;;;8.40;5.57;;;;;;;;;;5080014;28;20217;-65
2023/05/27 10:36:36;;;;;;;6.80;5.90;;;;;;;;;;5079924;28;20234;-63
2023/05/27 10:39:05;;;;;;;9.03;6.07;;;;;;;;;;5080277;28;20288;-63
2023/05/27 10:41:40;;;;;;;6.80;5.60;;;;;;;;;;5079503;28;20210;-63
2023/05/27 10:44:08;;;;;;;7.20;5.87;;;;;;;;;;5079939;28;20252;-63
2023/05/27 10:46:42;;;;;;;6.43;5.07;;;;;;;;;;5079526;28;20316;-64
2023/05/27 10:49:11;;;;;;;8.63;5.83;;;;;;;;;;5079423;28;20225;-63
2023/05/27 10:51:40;;;;;;;8.73;6.60;;;;;;;;;;5078007;28;20212;-63
2023/05/27 10:54:08;;;;;;;6.87;5.53;;;;;;;;;;5076068;28;20271;-64
2023/05/27 10:56:49;;;;;;;8.80;6.20;;;;;;;;;;5078547;28;20218;-63
2023/05/27 10:59:19;;;;;;;7.00;5.37;;;;;;;;;;5077015;28;20276;-64
2023/05/27 11:01:51;;;;;;;6.73;5.40;;;;;;;;;;5079224;28;20229;-63
2023/05/27 11:04:21;;;;;;;9.40;5.53;;;;;;;;;;5076721;28;20214;-64
2023/05/27 11:07:03;;;;;;;6.17;5.17;;;;;;;;;;5078830;28;20255;-63
2023/05/27 11:09:31;;;;;;;8.47;5.37;;;;;;;;;;5077033;28;20664;-64
2023/05/27 11:12:03;;;;;;;11.43;5.43;;;;;;;;;;5078559;28;20200;-65
2023/05/27 11:14:31;;;;;;;10.07;5.40;;;;;;;;;;5078888;28;20204;-62
2023/05/27 11:17:01;;;;;;;7.43;5.27;;;;;;;;;;5077993;28;20217;-63
2023/05/27 11:19:29;;;;;;;7.00;5.50;;;;;;;;;;5077873;28;20206;-63
2023/05/27 11:21:57;;;;;;;6.30;5.30;;;;;;;;;;5078128;28;20277;-63
2023/05/27 11:24:25;;;;;;;9.67;5.33;;;;;;;;;;5075558;28;20209;-63
2023/05/27 11:26:53;;;;;;;9.37;5.40;;;;;;;;;;5077709;28;20310;-63
2023/05/27 11:29:22;;;;;;;7.93;5.63;;;;;;;;;;5077767;28;20222;-64
2023/05/27 11:31:50;;;;;;;6.43;5.47;;;;;;;;;;5078788;28;20225;-64
2023/05/27 11:34:20;;;;;;;7.50;5.80;;;;;;;;;;5078541;28;20206;-65
2023/05/27 11:36:49;;;;;;;12.53;6.00;;;;;;;;;;5074835;28;20232;-64
2023/05/27 11:39:18;;;;;;;7.20;5.60;;;;;;;;;;5078738;28;20203;-65
2023/05/27 11:41:51;;;;;;;9.00;5.67;;;;;;;;;;5078508;28;20234;-65
2023/05/27 11:44:19;;;;;;;7.53;5.33;;;;;;;;;;5078984;28;20208;-65
2023/05/27 11:46:48;;;;;;;7.50;5.70;;;;;;;;;;5078667;28;20233;-64
2023/05/27 11:49:17;;;;;;;9.47;5.47;;;;;;;;;;5078725;28;20761;-64
2023/05/27 11:51:47;;;;;;;6.77;5.80;;;;;;;;;;5078803;28;20202;-63
2023/05/27 11:54:19;;;;;;;8.73;6.23;;;;;;;;;;5069368;28;20254;-61
2023/05/27 11:56:48;;;;;;;7.37;6.37;;;;;;;;;;5077679;28;20302;-63
2023/05/27 11:59:16;;;;;;;9.33;5.67;;;;;;;;;;5078414;28;20258;-65
2023/05/27 12:01:44;;;;;;;8.67;5.80;;;;;;;;;;5078069;28;20269;-64
2023/05/27 12:04:12;;;;;;;8.93;5.60;;;;;;;;;;5077938;28;20202;-64
2023/05/27 12:06:41;;;;;;;8.80;6.03;;;;;;;;;;5075530;28;20677;-64
2023/05/27 12:09:11;;;;;;;6.93;5.30;;;;;;;;;;5072622;28;20302;-64
2023/05/27 12:11:39;;;;;;;8.47;6.10;;;;;;;;;;5078041;28;20235;-63
2023/05/27 12:14:10;;;;;;;7.63;5.40;;;;;;;;;;5078753;28;20231;-63
2023/05/27 12:16:38;;;;;;;9.17;5.40;;;;;;;;;;5078119;28;20228;-65
2023/05/27 12:19:07;;;;;;;7.20;5.53;;;;;;;;;;5078301;28;20211;-63
2023/05/27 12:21:35;;;;;;;7.60;5.30;;;;;;;;;;5078383;28;20813;-64
2023/05/27 12:24:03;;;;;;;5.47;4.93;;;;;;;;;;5078395;28;20212;-64
2023/05/27 12:26:33;;;;;;;7.50;5.53;;;;;;;;;;5077892;28;20229;-63
2023/05/27 12:29:01;;;;;;;7.97;5.23;;;;;;;;;;5077946;28;20207;-65
2023/05/27 12:31:29;;;;;;;5.70;4.77;;;;;;;;;;5077905;28;20731;-66
2023/05/27 12:33:57;;;;;;;9.53;5.70;;;;;;;;;;5078267;28;20204;-65
2023/05/27 12:36:26;;;;;;;5.10;4.60;;;;;;;;;;5077945;28;20227;-65
2023/05/27 12:38:54;;;;;;;7.27;5.10;;;;;;;;;;5078183;28;20219;-63
2023/05/27 12:41:22;;;;;;;6.53;4.80;;;;;;;;;;5077861;28;20215;-65
2023/05/27 12:43:52;;;;;;;6.03;4.70;;;;;;;;;;5078052;28;20202;-64
2023/05/27 12:46:20;;;;;;;7.50;4.63;;;;;;;;;;5078021;28;20234;-63
2023/05/27 12:48:48;;;;;;;6.70;4.30;;;;;;;;;;5070216;28;20240;-64
2023/05/27 12:51:16;;;;;;;7.67;4.87;;;;;;;;;;5077796;28;20296;-63
2023/05/27 12:53:44;;;;;;;5.30;4.80;;;;;;;;;;5077218;28;20225;-63
2023/05/27 12:56:13;;;;;;;6.40;4.90;;;;;;;;;;5074477;28;20223;-63
2023/05/27 12:58:41;;;;;;;7.90;5.57;;;;;;;;;;5077191;28;20204;-64
2023/05/27 13:01:10;;;;;;;6.50;4.47;;;;;;;;;;5077080;28;20228;-63
2023/05/27 13:03:39;;;;;;;6.40;5.37;;;;;;;;;;5077120;28;20202;-63
2023/05/27 13:06:08;;;;;;;5.13;4.60;;;;;;;;;;5077414;28;20723;-64
2023/05/27 13:08:36;;;;;;;6.57;5.43;;;;;;;;;;5077316;28;20209;-63
2023/05/27 13:11:04;;;;;;;4.37;3.97;;;;;;;;;;5078280;28;20224;-64
2023/05/27 13:13:32;;;;;;;6.60;4.73;;;;;;;;;;5078907;28;20209;-64
2023/05/27 13:16:00;;;;;;;8.67;5.27;;;;;;;;;;5077558;28;20229;-63
2023/05/27 13:18:30;;;;;;;5.40;4.37;;;;;;;;;;5078129;28;20212;-64
2023/05/27 13:20:58;;;;;;;5.33;4.80;;;;;;;;;;5077783;28;20211;-63
2023/05/27 13:23:28;;;;;;;6.43;4.10;;;;;;;;;;5077353;28;20669;-64
2023/05/27 13:25:57;;;;;;;7.53;4.07;;;;;;;;;;5077195;28;20221;-63
2023/05/27 13:28:25;;;;;;;6.97;3.97;;;;;;;;;;5077332;28;20235;-64
2023/05/27 13:30:53;;;;;;;5.80;4.40;;;;;;;;;;5077332;28;20306;-64
2023/05/27 13:33:21;;;;;;;7.07;4.37;;;;;;;;;;5077114;28;20206;-64
2023/05/27 13:35:51;;;;;;;5.27;4.37;;;;;;;;;;5077239;28;20229;-65
2023/05/27 13:38:19;;;;;;;6.23;4.20;;;;;;;;;;5077065;28;20206;-63
2023/05/27 13:40:48;;;;;;;5.93;4.17;;;;;;;;;;5077104;28;20657;-65
2023/05/27 13:43:16;;;;;;;9.10;4.50;;;;;;;;;;5077158;28;20215;-64
2023/05/27 13:45:44;;;;;;;5.07;4.10;;;;;;;;;;5077290;28;20312;-63
2023/05/27 13:48:12;;;;;;;7.37;4.50;;;;;;;;;;5077213;28;20210;-64
2023/05/27 13:50:40;;;;;;;8.20;3.83;;;;;;;;;;5077222;28;20291;-64
2023/05/27 13:53:10;;;;;;;5.73;3.73;;;;;;;;;;5077091;28;20230;-64
2023/05/27 13:55:38;;;;;;;7.47;3.60;;;;;;;;;;5076923;28;20600;-63
2023/05/27 13:58:06;;;;;;;7.67;4.00;;;;;;;;;;5078103;28;20242;-64
2023/05/27 14:00:34;;;;;;;4.57;3.43;;;;;;;;;;5081200;28;20212;-64
2023/05/27 14:03:02;;;;;;;6.80;4.10;;;;;;;;;;5081182;28;20292;-65
2023/05/27 14:05:31;;;;;;;6.68;3.65;;;;;;;;;;5080960;28;20354;-64
2023/05/27 14:08:00;;;;;;;4.70;3.85;;;;;;;;;;5080704;28;20294;-65
2023/05/27 14:10:30;;;;;;;7.53;3.40;;;;;;;;;;5080763;28;20236;-65
2023/05/27 14:12:58;;;;;;;4.90;4.07;;;;;;;;;;5080880;28;20203;-65
2023/05/27 14:15:28;;;;;;;4.55;3.50;;;;;;;;;;5080832;28;20235;-65
2023/05/27 14:17:56;;;;;;;5.77;3.60;;;;;;;;;;5080563;28;20657;-65
2023/05/27 14:20:24;;;;;;;6.23;3.23;;;;;;;;;;5080643;28;20201;-65
2023/05/27 14:22:53;;;;;;;4.00;3.27;;;;;;;;;;5080775;28;20207;-65
2023/05/27 14:25:21;;;;;;;6.53;3.83;;;;;;;;;;5080501;28;20233;-65
2023/05/27 14:27:50;;;;;;;9.40;3.78;;;;;;;;;;5080518;28;20231;-67
2023/05/27 14:30:19;;;;;;;5.57;4.07;;;;;;;;;;5080567;28;20488;-68
2023/05/27 14:32:47;;;;;;;6.10;3.50;;;;;;;;;;5080184;28;20554;-68
2023/05/27 14:35:15;;;;;;;4.45;3.80;;;;;;;;;;5080205;28;20223;-68
2023/05/27 14:37:43;;;;;;;17.08;8.10;;;;;;;;;;5080200;28;20214;-68
2023/05/27 14:40:12;;;;;;;6.22;3.90;;;;;;;;;;5079334;28;20221;-67
2023/05/27 14:42:40;;;;;;;6.57;4.95;;;;;;;;;;5079833;28;20208;-67
2023/05/27 14:45:10;;;;;;;6.55;3.65;;;;;;;;;;5079743;28;20226;-67
2023/05/27 14:47:38;;;;;;;5.50;4.30;;;;;;;;;;5080115;28;20201;-68
2023/05/27 14:50:07;;;;;;;6.78;4.18;;;;;;;;;;5077987;28;20210;-68
2023/05/27 14:52:35;;;;;;;5.22;3.92;;;;;;;;;;5078868;28;20219;-68